createdAt,value
2019-03-16T00:01:04.312Z,99.90
2019-03-16T00:03:34.862Z,99.90
2019-03-16T00:06:05.342Z,99.90
2019-03-16T00:08:44.012Z,99.90
2019-03-16T00:11:16.657Z,99.90
2019-03-16T00:13:47.128Z,99.90
2019-03-16T00:16:17.551Z,99.90
2019-03-16T00:18:48.040Z,99.90
2019-03-16T00:21:18.491Z,99.90
2019-03-16T00:23:48.963Z,99.90
2019-03-16T00:26:19.341Z,99.90
2019-03-16T00:28:49.824Z,99.90
2019-03-16T00:31:20.289Z,99.90
2019-03-16T00:33:50.764Z,99.90
2019-03-16T00:36:21.201Z,99.90
2019-03-16T00:38:52.057Z,99.90
2019-03-16T00:41:22.508Z,99.90
2019-03-16T00:43:54.466Z,99.90
2019-03-16T00:46:24.890Z,99.90
2019-03-16T00:48:55.405Z,99.90
2019-03-16T00:51:25.865Z,99.90
2019-03-16T00:53:56.407Z,99.90
2019-03-16T00:56:26.877Z,99.90
2019-03-16T00:58:57.746Z,99.90
2019-03-16T01:01:28.241Z,99.90
2019-03-16T01:03:58.668Z,99.90
2019-03-16T01:06:29.341Z,99.90
2019-03-16T01:08:59.835Z,99.90
2019-03-16T01:11:30.352Z,99.90
2019-03-16T01:14:00.748Z,99.90
2019-03-16T01:16:31.208Z,99.90
2019-03-16T01:19:01.675Z,99.90
2019-03-16T01:21:32.192Z,99.90
2019-03-16T01:24:02.649Z,99.90
2019-03-16T01:26:33.086Z,99.90
2019-03-16T01:29:03.496Z,99.90
2019-03-16T01:31:34.077Z,99.90
2019-03-16T01:34:04.490Z,99.90
2019-03-16T01:36:34.945Z,99.90
2019-03-16T01:39:07.676Z,99.90
2019-03-16T01:41:38.119Z,99.90
2019-03-16T01:44:08.601Z,99.90
2019-03-16T01:46:39.122Z,99.90
2019-03-16T01:49:09.518Z,99.90
2019-03-16T01:51:40.051Z,99.90
2019-03-16T01:54:10.561Z,99.90
2019-03-16T01:56:41.015Z,99.90
2019-03-16T01:59:12.896Z,99.90
2019-03-16T02:01:43.451Z,99.90
2019-03-16T02:04:13.825Z,99.90
2019-03-16T02:06:44.353Z,99.90
2019-03-16T02:09:14.789Z,99.90
2019-03-16T02:11:45.357Z,99.90
2019-03-16T02:14:15.788Z,99.90
2019-03-16T02:16:46.206Z,99.90
2019-03-16T02:19:16.714Z,99.90
2019-03-16T02:21:47.344Z,99.90
2019-03-16T02:24:19.453Z,99.90
2019-03-16T02:26:50.313Z,99.90
2019-03-16T02:29:21.596Z,99.90
2019-03-16T02:31:52.022Z,99.90
2019-03-16T02:34:23.586Z,99.90
2019-03-16T02:36:54.360Z,99.90
2019-03-16T02:39:24.887Z,99.90
2019-03-16T02:41:55.356Z,99.90
2019-03-16T02:44:25.950Z,99.90
2019-03-16T02:46:56.428Z,99.90
2019-03-16T02:49:26.958Z,99.90
2019-03-16T02:51:57.604Z,99.90
2019-03-16T02:54:28.016Z,99.90
2019-03-16T02:56:58.457Z,99.90
2019-03-16T02:59:28.951Z,99.90
2019-03-16T03:01:59.521Z,99.90
2019-03-16T03:04:30.032Z,99.90
2019-03-16T03:07:00.681Z,99.90
2019-03-16T03:09:31.149Z,99.90
2019-03-16T03:12:02.120Z,99.90
2019-03-16T03:14:34.924Z,99.90
2019-03-16T03:17:05.763Z,99.90
2019-03-16T03:19:37.436Z,99.90
2019-03-16T03:22:09.537Z,99.90
2019-03-16T03:24:43.898Z,99.90
2019-03-16T03:27:12.075Z,99.90
2019-03-16T03:29:42.499Z,99.90
2019-03-16T03:32:12.947Z,99.90
2019-03-16T03:34:43.413Z,99.90
2019-03-16T03:37:16.324Z,99.90
2019-03-16T03:39:46.761Z,99.90
2019-03-16T03:42:17.304Z,99.90
2019-03-16T03:44:47.818Z,99.90
2019-03-16T03:47:18.367Z,99.90
2019-03-16T03:50:15.720Z,99.90
2019-03-16T03:52:52.748Z,99.90
2019-03-16T03:55:24.111Z,99.90
2019-03-16T03:57:54.673Z,99.90
2019-03-16T04:00:25.128Z,99.90
2019-03-16T04:02:55.621Z,99.90
2019-03-16T04:05:26.040Z,99.90
2019-03-16T04:07:56.554Z,99.90
2019-03-16T04:10:27.116Z,99.90
2019-03-16T04:12:57.611Z,99.90
2019-03-16T04:15:32.131Z,99.90
2019-03-16T04:18:02.582Z,99.90
2019-03-16T04:20:33.050Z,99.90
2019-03-16T04:23:03.567Z,99.90
2019-03-16T04:25:42.450Z,99.90
2019-03-16T04:28:16.113Z,99.90
2019-03-16T04:33:14.085Z,99.90
2019-03-16T04:35:44.491Z,99.90
2019-03-16T04:38:14.976Z,99.90
2019-03-16T04:40:46.555Z,99.90
2019-03-16T04:43:16.965Z,99.90
2019-03-16T04:45:47.533Z,99.90
2019-03-16T04:48:16.103Z,99.90
2019-03-16T04:50:47.095Z,99.90
2019-03-16T04:53:17.527Z,99.90
2019-03-16T04:55:47.908Z,99.90
2019-03-16T04:58:18.373Z,99.90
2019-03-16T05:00:48.921Z,99.90
2019-03-16T05:03:19.525Z,99.90
2019-03-16T05:05:50.756Z,99.90
2019-03-16T05:08:21.427Z,99.90
2019-03-16T05:10:51.866Z,99.90
2019-03-16T05:13:25.464Z,99.90
2019-03-16T05:15:55.930Z,99.90
2019-03-16T05:21:08.268Z,99.90
2019-03-16T05:23:38.773Z,99.30
2019-03-16T05:26:09.266Z,97.50
2019-03-16T05:28:39.696Z,96.40
2019-03-16T05:31:12.166Z,95.70
2019-03-16T05:33:45.194Z,96.20
2019-03-16T05:36:16.859Z,97.10
2019-03-16T05:38:47.326Z,97.80
2019-03-16T05:41:17.966Z,98.50
2019-03-16T05:43:48.469Z,98.30
2019-03-16T05:46:18.972Z,98.00
2019-03-16T05:48:49.443Z,98.20
2019-03-16T05:51:19.830Z,98.50
2019-03-16T05:53:50.375Z,98.40
2019-03-16T05:56:21.033Z,98.40
2019-03-16T05:58:51.533Z,98.60
2019-03-16T06:01:22.091Z,98.30
2019-03-16T06:03:52.543Z,97.90
2019-03-16T06:06:22.997Z,98.30
2019-03-16T06:08:53.526Z,98.50
2019-03-16T06:11:23.970Z,98.10
2019-03-16T06:13:56.131Z,98.10
2019-03-16T06:16:28.628Z,97.90
2019-03-16T06:18:59.908Z,97.70
2019-03-16T06:21:31.413Z,97.30
2019-03-16T06:24:01.937Z,96.90
2019-03-16T06:26:32.537Z,96.50
2019-03-16T06:29:02.979Z,96.50
2019-03-16T06:31:33.430Z,96.30
2019-03-16T06:34:03.859Z,96.60
2019-03-16T06:36:35.925Z,97.10
2019-03-16T06:39:07.667Z,97.10
2019-03-16T06:41:38.271Z,96.90
2019-03-16T06:44:11.227Z,96.70
2019-03-16T06:46:49.435Z,96.50
2019-03-16T06:52:48.351Z,95.60
2019-03-16T06:55:18.988Z,95.90
2019-03-16T06:57:58.445Z,95.40
2019-03-16T07:03:29.510Z,95.00
2019-03-16T07:06:01.123Z,94.70
2019-03-16T07:08:35.993Z,94.90
2019-03-16T07:11:06.663Z,94.50
2019-03-16T07:13:39.065Z,94.30
2019-03-16T07:16:12.241Z,93.80
2019-03-16T07:18:58.653Z,92.90
2019-03-16T07:24:30.311Z,92.20
2019-03-16T07:30:03.522Z,92.70
2019-03-16T07:32:56.373Z,91.00
2019-03-16T07:35:34.418Z,91.70
2019-03-16T07:38:13.584Z,91.20
2019-03-16T07:40:50.000Z,90.60
2019-03-16T07:43:26.228Z,91.10
2019-03-16T07:46:01.138Z,90.10
2019-03-16T07:48:34.476Z,90.20
2019-03-16T07:51:37.504Z,88.70
2019-03-16T07:54:20.620Z,88.70
2019-03-16T07:56:49.206Z,88.30
2019-03-16T07:59:19.897Z,83.90
2019-03-16T08:01:50.594Z,81.80
2019-03-16T08:08:04.305Z,80.40
2019-03-16T08:13:42.496Z,76.90
2019-03-16T08:16:14.609Z,74.80
2019-03-16T08:18:45.281Z,73.00
2019-03-16T08:21:18.849Z,73.90
2019-03-16T08:23:58.047Z,71.10
2019-03-16T08:26:30.983Z,69.10
2019-03-16T08:29:03.375Z,69.60
2019-03-16T08:31:35.404Z,71.40
2019-03-16T08:34:06.033Z,70.90
2019-03-16T08:36:38.337Z,69.20
2019-03-16T08:39:08.950Z,63.40
2019-03-16T08:41:39.434Z,66.10
2019-03-16T08:44:10.739Z,67.50
2019-03-16T08:46:41.185Z,66.50
2019-03-16T08:49:11.656Z,65.40
2019-03-16T08:51:42.073Z,65.30
2019-03-16T08:54:12.453Z,65.60
2019-03-16T08:56:42.947Z,65.50
2019-03-16T08:59:14.542Z,63.00
2019-03-16T09:01:46.158Z,64.50
2019-03-16T09:04:16.559Z,65.20
2019-03-16T09:06:47.167Z,65.50
2019-03-16T09:09:20.560Z,64.10
2019-03-16T09:11:53.394Z,64.70
2019-03-16T09:14:23.769Z,64.40
2019-03-16T09:17:00.115Z,62.90
2019-03-16T09:19:32.453Z,63.30
2019-03-16T09:22:02.948Z,65.30
2019-03-16T09:24:33.390Z,65.20
2019-03-16T09:27:04.037Z,65.50
2019-03-16T09:29:36.128Z,66.20
2019-03-16T09:32:06.593Z,66.40
2019-03-16T09:34:37.118Z,65.60
2019-03-16T09:37:07.537Z,64.70
2019-03-16T09:39:38.003Z,65.70
2019-03-16T09:42:10.280Z,68.60
2019-03-16T09:44:42.415Z,66.60
2019-03-16T09:47:12.972Z,66.40
2019-03-16T09:49:43.474Z,66.60
2019-03-16T09:52:15.338Z,66.00
2019-03-16T09:54:45.862Z,65.20
2019-03-16T09:57:16.345Z,65.40
2019-03-16T09:59:46.853Z,65.00
2019-03-16T10:02:17.299Z,66.00
2019-03-16T10:04:47.757Z,64.80
2019-03-16T10:07:20.853Z,64.20
2019-03-16T10:09:52.050Z,65.60
2019-03-16T10:12:25.764Z,64.60
2019-03-16T10:14:56.295Z,64.90
2019-03-16T10:17:27.175Z,64.50
2019-03-16T10:19:59.712Z,63.50
2019-03-16T10:22:30.832Z,63.90
2019-03-16T10:25:06.144Z,63.60
2019-03-16T10:27:35.819Z,63.40
2019-03-16T10:30:13.523Z,64.40
2019-03-16T10:32:44.228Z,63.50
2019-03-16T10:35:15.160Z,63.30
2019-03-16T10:37:47.107Z,62.10
2019-03-16T10:40:17.691Z,61.10
2019-03-16T10:42:48.331Z,60.80
2019-03-16T10:45:19.020Z,60.70
2019-03-16T10:47:49.749Z,59.40
2019-03-16T10:50:21.114Z,59.00
2019-03-16T10:52:54.529Z,59.90
2019-03-16T10:55:25.116Z,59.50
2019-03-16T10:57:55.761Z,60.20
2019-03-16T11:00:26.397Z,59.70
2019-03-16T11:02:58.277Z,59.80
2019-03-16T11:05:30.990Z,58.60
2019-03-16T11:08:02.622Z,58.50
2019-03-16T11:10:33.222Z,57.50
2019-03-16T11:13:03.645Z,57.70
2019-03-16T11:15:34.164Z,58.10
2019-03-16T11:18:04.770Z,59.10
2019-03-16T11:20:36.971Z,57.50
2019-03-16T11:23:08.337Z,57.70
2019-03-16T11:25:38.776Z,58.10
2019-03-16T11:28:11.844Z,57.60
2019-03-16T11:30:45.699Z,56.70
2019-03-16T11:33:16.447Z,57.50
2019-03-16T11:35:48.570Z,57.30
2019-03-16T11:38:20.030Z,57.90
2019-03-16T11:40:50.458Z,57.70
2019-03-16T11:43:21.160Z,56.30
2019-03-16T11:45:51.916Z,56.00
2019-03-16T11:48:22.502Z,57.00
2019-03-16T11:50:52.997Z,56.50
2019-03-16T11:53:23.541Z,55.50
2019-03-16T11:55:54.570Z,55.10
2019-03-16T11:58:25.022Z,52.50
2019-03-16T12:00:55.481Z,52.80
2019-03-16T12:03:25.928Z,49.20
2019-03-16T12:05:59.035Z,51.70
2019-03-16T12:08:29.561Z,54.10
2019-03-16T12:11:00.133Z,55.20
2019-03-16T12:13:30.647Z,55.10
2019-03-16T12:16:02.673Z,54.50
2019-03-16T12:18:33.417Z,55.10
2019-03-16T12:21:04.160Z,56.00
2019-03-16T12:23:34.767Z,56.40
2019-03-16T12:26:05.296Z,55.90
2019-03-16T12:28:35.908Z,55.50
2019-03-16T12:31:07.018Z,54.30
2019-03-16T12:33:37.633Z,54.20
2019-03-16T12:36:08.238Z,54.10
2019-03-16T12:38:42.511Z,54.00
2019-03-16T12:41:13.043Z,53.30
2019-03-16T12:43:55.490Z,53.30
2019-03-16T12:46:26.021Z,53.80
2019-03-16T12:48:56.760Z,54.50
2019-03-16T12:51:27.280Z,53.50
2019-03-16T12:53:58.031Z,53.70
2019-03-16T12:59:11.903Z,52.50
2019-03-16T13:01:44.071Z,52.90
2019-03-16T13:04:18.712Z,52.20
2019-03-16T13:06:51.237Z,51.50
2019-03-16T13:09:21.711Z,50.70
2019-03-16T13:11:53.243Z,51.50
2019-03-16T13:14:23.752Z,51.40
2019-03-16T13:16:57.160Z,51.20
2019-03-16T13:19:27.727Z,51.20
2019-03-16T13:22:00.045Z,51.40
2019-03-16T13:24:33.389Z,51.70
2019-03-16T13:27:06.046Z,51.70
2019-03-16T13:29:36.576Z,51.70
2019-03-16T13:32:07.112Z,51.10
2019-03-16T13:34:38.008Z,51.30
2019-03-16T13:37:08.652Z,51.80
2019-03-16T13:39:39.192Z,52.60
2019-03-16T13:42:15.589Z,52.50
2019-03-16T13:44:46.796Z,53.00
2019-03-16T13:47:26.468Z,52.70
2019-03-16T13:50:05.301Z,52.40
2019-03-16T13:52:37.333Z,52.50
2019-03-16T13:55:08.407Z,52.70
2019-03-16T13:57:38.889Z,53.30
2019-03-16T14:00:13.903Z,54.60
2019-03-16T14:02:44.441Z,54.70
2019-03-16T14:05:15.212Z,55.60
2019-03-16T14:07:46.032Z,56.30
2019-03-16T14:10:25.467Z,57.20
2019-03-16T14:12:55.932Z,58.20
2019-03-16T14:15:28.845Z,59.00
2019-03-16T14:17:59.311Z,59.60
2019-03-16T14:20:30.555Z,60.10
2019-03-16T14:23:01.360Z,59.90
2019-03-16T14:25:31.904Z,60.70
2019-03-16T14:28:04.224Z,60.70
2019-03-16T14:30:40.953Z,62.10
2019-03-16T14:33:09.457Z,61.90
2019-03-16T14:35:39.914Z,62.90
2019-03-16T14:38:12.074Z,62.50
2019-03-16T14:40:45.232Z,63.10
2019-03-16T14:43:15.686Z,64.10
2019-03-16T14:45:49.001Z,63.70
2019-03-16T14:48:20.319Z,64.30
2019-03-16T14:50:50.935Z,65.00
2019-03-16T14:53:21.631Z,65.40
2019-03-16T14:55:56.355Z,65.60
2019-03-16T14:58:27.999Z,67.20
2019-03-16T15:00:58.591Z,66.70
2019-03-16T15:03:29.224Z,66.80
2019-03-16T15:06:03.750Z,70.40
2019-03-16T15:09:06.188Z,74.00
2019-03-16T15:11:23.096Z,74.80
2019-03-16T15:14:01.908Z,75.30
2019-03-16T15:16:32.720Z,78.80
2019-03-16T15:19:03.775Z,77.80
2019-03-16T15:21:34.478Z,77.70
2019-03-16T15:24:04.979Z,76.50
2019-03-16T15:26:43.754Z,76.70
2019-03-16T15:29:11.182Z,76.80
2019-03-16T15:31:41.968Z,77.00
2019-03-16T15:43:47.332Z,76.10
2019-03-16T15:46:19.560Z,76.60
2019-03-16T15:49:13.977Z,76.90
2019-03-16T15:51:47.194Z,77.30
2019-03-16T15:54:17.844Z,77.30
2019-03-16T15:57:08.517Z,77.60
2019-03-16T15:59:40.329Z,78.10
2019-03-16T16:02:10.812Z,78.10
2019-03-16T16:07:55.152Z,79.20
2019-03-16T16:10:27.376Z,79.10
2019-03-16T16:12:59.387Z,79.60
2019-03-16T16:15:29.902Z,79.30
2019-03-16T16:18:02.536Z,79.80
2019-03-16T16:20:37.266Z,80.00
2019-03-16T16:23:11.244Z,80.20
2019-03-16T16:25:42.102Z,80.90
2019-03-16T16:28:33.045Z,80.80
2019-03-16T16:31:15.809Z,81.20
2019-03-16T16:33:38.101Z,82.10
2019-03-16T16:36:08.851Z,82.20
2019-03-16T16:38:39.343Z,81.80
2019-03-16T16:41:09.821Z,81.80
2019-03-16T16:43:41.878Z,81.80
2019-03-16T16:46:12.354Z,81.80
2019-03-16T16:48:42.767Z,82.10
2019-03-16T16:51:14.194Z,82.40
2019-03-16T16:53:44.785Z,82.60
2019-03-16T16:56:15.192Z,83.00
2019-03-16T16:58:45.886Z,83.10
2019-03-16T17:01:28.514Z,83.30
2019-03-16T17:04:03.251Z,83.60
2019-03-16T17:06:43.803Z,83.80
2019-03-16T17:09:15.943Z,84.00
2019-03-16T17:11:47.812Z,84.10
2019-03-16T17:17:08.623Z,87.10
2019-03-16T17:19:39.064Z,88.10
2019-03-16T17:22:14.719Z,88.90
2019-03-16T17:25:40.607Z,91.50
2019-03-16T17:27:27.190Z,92.70
2019-03-16T17:32:52.292Z,93.60
2019-03-16T17:35:22.820Z,94.80
2019-03-16T17:37:53.271Z,96.80
2019-03-16T17:40:23.987Z,98.60
2019-03-16T17:42:54.827Z,99.90
2019-03-16T17:45:25.326Z,99.90
2019-03-16T17:47:55.842Z,99.90
2019-03-16T17:50:27.604Z,99.90
2019-03-16T17:52:59.700Z,99.90
2019-03-16T17:55:32.868Z,99.90
2019-03-16T17:58:16.627Z,99.90
2019-03-16T18:00:53.353Z,99.90
2019-03-16T18:03:29.347Z,99.90
2019-03-16T18:06:02.474Z,99.90
2019-03-16T18:11:52.629Z,99.90
2019-03-16T18:14:20.032Z,99.90
2019-03-16T18:16:55.185Z,99.90
2019-03-16T18:19:32.743Z,99.90
2019-03-16T18:22:08.478Z,99.90
2019-03-16T18:24:39.184Z,99.90
2019-03-16T18:27:09.889Z,99.90
2019-03-16T18:29:43.245Z,99.90
2019-03-16T18:32:16.971Z,99.90
2019-03-16T18:34:48.998Z,99.90
2019-03-16T18:37:24.095Z,99.90
2019-03-16T18:39:57.200Z,99.90
2019-03-16T18:42:27.954Z,99.90
2019-03-16T18:44:59.171Z,99.90
2019-03-16T18:47:33.136Z,99.90
2019-03-16T18:50:07.658Z,99.90
2019-03-16T18:52:38.599Z,99.90
2019-03-16T18:55:11.611Z,99.90
2019-03-16T18:57:46.618Z,99.90
2019-03-16T19:00:34.743Z,99.90
2019-03-16T19:03:06.086Z,99.90
2019-03-16T19:05:40.615Z,99.90
2019-03-16T19:08:37.747Z,99.90
2019-03-16T19:11:21.467Z,99.90
2019-03-16T19:13:55.159Z,99.90
2019-03-16T19:16:27.411Z,99.90
2019-03-16T19:19:00.933Z,99.90
2019-03-16T19:21:31.944Z,99.90
2019-03-16T19:24:03.386Z,99.90
2019-03-16T19:26:34.150Z,99.90
2019-03-16T19:29:06.247Z,99.90
2019-03-16T19:35:20.216Z,99.90
2019-03-16T19:41:21.783Z,99.90
2019-03-16T19:49:32.276Z,99.90
2019-03-16T19:54:35.893Z,99.90
2019-03-16T19:57:16.420Z,99.90
2019-03-16T19:59:47.291Z,99.90
2019-03-16T20:02:18.822Z,99.90
2019-03-16T20:04:50.412Z,99.90
2019-03-16T20:07:23.151Z,99.90
2019-03-16T20:09:54.340Z,99.90
2019-03-16T20:12:27.494Z,99.90
2019-03-16T20:15:00.886Z,99.90
2019-03-16T20:17:33.151Z,99.90
2019-03-16T20:20:08.544Z,99.90
2019-03-16T20:22:42.145Z,99.90
2019-03-16T20:25:17.360Z,99.90
2019-03-16T20:27:55.196Z,99.90
2019-03-16T20:30:27.201Z,99.90
2019-03-16T20:33:04.329Z,99.90
2019-03-16T20:35:38.600Z,99.90
2019-03-16T20:38:10.057Z,99.90
2019-03-16T20:40:40.746Z,99.90
2019-03-16T20:43:11.197Z,99.90
2019-03-16T20:45:41.982Z,99.90
2019-03-16T20:48:29.614Z,99.90
2019-03-16T20:51:04.403Z,99.90
2019-03-16T20:53:35.489Z,99.90
2019-03-16T20:56:06.018Z,99.90
2019-03-16T20:58:41.670Z,99.90
2019-03-16T21:01:18.290Z,99.90
2019-03-16T21:03:48.898Z,99.90
2019-03-16T21:06:25.451Z,99.90
2019-03-16T21:09:03.124Z,99.90
2019-03-16T21:11:29.632Z,99.90
2019-03-16T21:14:09.237Z,99.90
2019-03-16T21:16:40.878Z,99.90
2019-03-16T21:19:11.400Z,99.90
2019-03-16T21:21:42.079Z,99.90
2019-03-16T21:24:12.630Z,99.90
2019-03-16T21:26:51.851Z,99.90
2019-03-16T21:29:19.327Z,99.90
2019-03-16T21:31:49.877Z,99.90
2019-03-16T21:34:22.971Z,99.90
2019-03-16T21:36:57.719Z,99.90
2019-03-16T21:39:28.356Z,99.90
2019-03-16T21:41:58.882Z,99.90
2019-03-16T21:44:29.565Z,99.90
2019-03-16T21:47:01.176Z,99.90
2019-03-16T21:49:32.473Z,99.90
2019-03-16T21:52:03.070Z,99.90
2019-03-16T21:54:33.443Z,99.90
2019-03-16T21:57:05.509Z,99.90
2019-03-16T21:59:36.070Z,99.90
2019-03-16T22:02:06.659Z,99.90
2019-03-16T22:04:37.215Z,99.90
2019-03-16T22:07:07.664Z,99.90
2019-03-16T22:09:38.115Z,99.90
2019-03-16T22:12:08.640Z,99.90
2019-03-16T22:14:39.123Z,99.90
2019-03-16T22:17:09.681Z,99.90
2019-03-16T22:19:40.171Z,99.90
2019-03-16T22:22:10.622Z,99.90
2019-03-16T22:24:41.077Z,99.90
2019-03-16T22:27:11.558Z,99.90
2019-03-16T22:29:42.601Z,99.90
2019-03-16T22:32:13.064Z,99.90
2019-03-16T22:34:46.118Z,99.90
2019-03-16T22:37:16.656Z,99.90
2019-03-16T22:39:47.135Z,99.90
2019-03-16T22:42:17.607Z,99.90
2019-03-16T22:44:49.716Z,99.90
2019-03-16T22:47:20.371Z,99.90
2019-03-16T22:49:51.284Z,99.90
2019-03-16T22:52:21.761Z,99.90
2019-03-16T22:54:52.309Z,99.90
2019-03-16T22:57:22.890Z,99.90
2019-03-16T22:59:53.390Z,99.90
2019-03-16T23:02:23.884Z,99.90
2019-03-16T23:04:54.387Z,99.90
2019-03-16T23:07:24.873Z,99.90
2019-03-16T23:09:55.405Z,99.90
2019-03-16T23:12:27.173Z,99.90
2019-03-16T23:14:57.717Z,99.90
2019-03-16T23:17:29.187Z,99.90
2019-03-16T23:19:59.751Z,99.90
2019-03-16T23:22:30.181Z,99.90
2019-03-16T23:25:00.652Z,99.90
2019-03-16T23:27:31.125Z,99.90
2019-03-16T23:30:01.763Z,99.90
2019-03-16T23:32:33.256Z,99.90
2019-03-16T23:35:03.957Z,99.90
2019-03-16T23:37:34.382Z,99.90
2019-03-16T23:40:06.653Z,99.90
2019-03-16T23:42:37.074Z,99.90
2019-03-16T23:45:14.815Z,99.90
2019-03-16T23:47:45.295Z,99.90
2019-03-16T23:50:15.822Z,99.90
2019-03-16T23:52:46.267Z,99.90
2019-03-16T23:55:16.789Z,99.90
2019-03-16T23:57:47.194Z,99.90
